sensor_id;sensor_type;location;lat;lon;timestamp;pressure;altitude;pressure_sealevel;temperature;humidity
37298;BME280;30517;51.932;4.278;2023-05-09T00:01:51;101765.72;;;18.38;55.56
37298;BME280;30517;51.932;4.278;2023-05-09T00:04:32;101755.88;;;18.42;55.65
37298;BME280;30517;51.932;4.278;2023-05-09T00:07:14;101674.13;;;17.89;55.49
37298;BME280;30517;51.932;4.278;2023-05-09T00:09:55;101740.97;;;18.30;55.54
37298;BME280;30517;51.932;4.278;2023-05-09T00:12:35;101607.25;;;17.51;55.59
37298;BME280;30517;51.932;4.278;2023-05-09T00:15:16;101691.66;;;18.04;55.66
37298;BME280;30517;51.932;4.278;2023-05-09T00:17:58;101698.59;;;18.11;55.87
37298;BME280;30517;51.932;4.278;2023-05-09T00:20:39;101647.66;;;17.76;55.79
37298;BME280;30517;51.932;4.278;2023-05-09T00:23:23;101677.53;;;17.98;55.88
37298;BME280;30517;51.932;4.278;2023-05-09T00:26:04;101608.13;;;17.51;55.67
37298;BME280;30517;51.932;4.278;2023-05-09T00:28:45;101717.97;;;18.23;56.06
37298;BME280;30517;51.932;4.278;2023-05-09T00:31:26;101672.28;;;17.93;55.82
37298;BME280;30517;51.932;4.278;2023-05-09T00:34:07;101756.84;;;18.38;55.86
37298;BME280;30517;51.932;4.278;2023-05-09T00:36:48;101746.34;;;18.28;55.80
37298;BME280;30517;51.932;4.278;2023-05-09T00:39:29;101679.19;;;18.03;55.62
37298;BME280;30517;51.932;4.278;2023-05-09T00:42:10;101727.66;;;18.28;55.67
37298;BME280;30517;51.932;4.278;2023-05-09T00:44:51;101665.97;;;17.96;55.70
37298;BME280;30517;51.932;4.278;2023-05-09T00:47:33;101743.63;;;18.31;56.16
37298;BME280;30517;51.932;4.278;2023-05-09T00:50:14;101575.59;;;17.31;55.84
37298;BME280;30517;51.932;4.278;2023-05-09T00:52:55;101532.19;;;17.24;55.82
37298;BME280;30517;51.932;4.278;2023-05-09T00:55:36;101709.84;;;18.29;56.19
37298;BME280;30517;51.932;4.278;2023-05-09T00:58:17;101593.13;;;17.44;55.93
37298;BME280;30517;51.932;4.278;2023-05-09T01:00:58;101661.56;;;17.96;55.95
37298;BME280;30517;51.932;4.278;2023-05-09T01:03:41;101697.50;;;18.22;55.66
37298;BME280;30517;51.932;4.278;2023-05-09T01:06:42;101702.75;;;18.26;55.91
37298;BME280;30517;51.932;4.278;2023-05-09T01:09:54;101694.81;;;18.23;55.77
37298;BME280;30517;51.932;4.278;2023-05-09T01:12:41;101695.66;;;18.25;55.79
37298;BME280;30517;51.932;4.278;2023-05-09T01:18:29;101677.06;;;18.21;56.20
37298;BME280;30517;51.932;4.278;2023-05-09T01:21:17;101581.31;;;17.59;56.06
37298;BME280;30517;51.932;4.278;2023-05-09T01:27:22;101671.78;;;18.18;56.07
37298;BME280;30517;51.932;4.278;2023-05-09T01:30:09;101652.34;;;18.11;55.72
37298;BME280;30517;51.932;4.278;2023-05-09T01:32:53;101657.53;;;18.17;56.19
37298;BME280;30517;51.932;4.278;2023-05-09T01:35:38;101505.34;;;17.33;56.10
37298;BME280;30517;51.932;4.278;2023-05-09T01:38:24;101649.59;;;18.16;55.98
37298;BME280;30517;51.932;4.278;2023-05-09T01:41:08;101631.03;;;18.08;55.96
37298;BME280;30517;51.932;4.278;2023-05-09T01:43:50;101647.81;;;18.14;56.13
37298;BME280;30517;51.932;4.278;2023-05-09T01:46:34;101517.94;;;17.25;56.23
37298;BME280;30517;51.932;4.278;2023-05-09T01:49:16;101640.00;;;18.05;56.05
37298;BME280;30517;51.932;4.278;2023-05-09T01:52:00;101622.94;;;18.12;55.99
37298;BME280;30517;51.932;4.278;2023-05-09T01:54:44;101570.28;;;17.76;56.07
37298;BME280;30517;51.932;4.278;2023-05-09T01:57:27;101606.28;;;18.01;56.19
37298;BME280;30517;51.932;4.278;2023-05-09T02:00:09;101553.50;;;17.70;55.68
37298;BME280;30517;51.932;4.278;2023-05-09T02:02:53;101474.75;;;17.06;55.96
37298;BME280;30517;51.932;4.278;2023-05-09T02:05:35;101599.47;;;17.86;56.12
37298;BME280;30517;51.932;4.278;2023-05-09T02:08:17;101620.38;;;18.06;56.19
37298;BME280;30517;51.932;4.278;2023-05-09T02:11:00;101614.47;;;17.92;55.91
37298;BME280;30517;51.932;4.278;2023-05-09T02:13:41;101582.66;;;17.83;55.99
37298;BME280;30517;51.932;4.278;2023-05-09T02:16:25;101616.13;;;17.98;56.00
37298;BME280;30517;51.932;4.278;2023-05-09T02:19:06;101604.44;;;18.03;56.05
37298;BME280;30517;51.932;4.278;2023-05-09T02:21:47;101607.25;;;17.96;55.82
37298;BME280;30517;51.932;4.278;2023-05-09T02:24:30;101608.97;;;18.01;55.99
37298;BME280;30517;51.932;4.278;2023-05-09T02:27:12;101582.69;;;17.78;56.15
37298;BME280;30517;51.932;4.278;2023-05-09T02:29:55;101559.59;;;17.77;56.03
37298;BME280;30517;51.932;4.278;2023-05-09T02:32:38;101421.94;;;16.81;56.10
37298;BME280;30517;51.932;4.278;2023-05-09T02:35:20;101600.09;;;17.99;56.03
37298;BME280;30517;51.932;4.278;2023-05-09T02:38:02;101453.31;;;17.14;56.06
37298;BME280;30517;51.932;4.278;2023-05-09T02:40:46;101558.75;;;17.74;56.03
37298;BME280;30517;51.932;4.278;2023-05-09T02:43:27;101385.63;;;16.77;56.09
37298;BME280;30517;51.932;4.278;2023-05-09T02:46:08;101595.69;;;17.97;56.43
37298;BME280;30517;51.932;4.278;2023-05-09T02:48:49;101545.47;;;17.72;56.38
37298;BME280;30517;51.932;4.278;2023-05-09T02:51:31;101449.69;;;17.16;56.17
37298;BME280;30517;51.932;4.278;2023-05-09T02:54:12;101542.81;;;17.70;56.00
37298;BME280;30517;51.932;4.278;2023-05-09T02:56:53;101424.28;;;16.98;56.07
37298;BME280;30517;51.932;4.278;2023-05-09T02:59:34;101545.69;;;17.61;56.30
37298;BME280;30517;51.932;4.278;2023-05-09T03:02:15;101519.31;;;17.46;56.41
37298;BME280;30517;51.932;4.278;2023-05-09T03:04:56;101338.94;;;16.55;56.30
37298;BME280;30517;51.932;4.278;2023-05-09T03:07:37;101506.91;;;17.45;56.07
37298;BME280;30517;51.932;4.278;2023-05-09T03:10:18;101571.84;;;17.89;56.13
37298;BME280;30517;51.932;4.278;2023-05-09T03:12:59;101500.59;;;17.49;56.27
37298;BME280;30517;51.932;4.278;2023-05-09T03:15:39;101388.22;;;16.80;55.95
37298;BME280;30517;51.932;4.278;2023-05-09T03:18:21;101557.63;;;17.87;56.12
37298;BME280;30517;51.932;4.278;2023-05-09T03:21:01;101358.16;;;16.72;56.04
37298;BME280;30517;51.932;4.278;2023-05-09T03:23:42;101551.47;;;17.85;56.12
37298;BME280;30517;51.932;4.278;2023-05-09T03:26:23;101392.28;;;17.00;56.05
37298;BME280;30517;51.932;4.278;2023-05-09T03:29:05;101560.38;;;17.84;56.22
37298;BME280;30517;51.932;4.278;2023-05-09T03:31:46;101547.06;;;17.82;56.21
37298;BME280;30517;51.932;4.278;2023-05-09T03:34:27;101528.41;;;17.81;56.41
37298;BME280;30517;51.932;4.278;2023-05-09T03:37:08;101544.44;;;17.81;56.14
37298;BME280;30517;51.932;4.278;2023-05-09T03:39:49;101517.75;;;17.81;56.01
37298;BME280;30517;51.932;4.278;2023-05-09T03:42:30;101526.66;;;17.80;56.12
37298;BME280;30517;51.932;4.278;2023-05-09T03:45:11;101515.09;;;17.79;56.26
37298;BME280;30517;51.932;4.278;2023-05-09T03:47:52;101513.41;;;17.74;55.83
37298;BME280;30517;51.932;4.278;2023-05-09T03:50:32;101238.16;;;15.88;55.96
37298;BME280;30517;51.932;4.278;2023-05-09T03:53:13;101464.00;;;17.56;56.25
37298;BME280;30517;51.932;4.278;2023-05-09T03:55:54;101501.78;;;17.76;56.20
37298;BME280;30517;51.932;4.278;2023-05-09T03:58:35;101425.25;;;17.39;56.21
37298;BME280;30517;51.932;4.278;2023-05-09T04:01:16;101502.72;;;17.74;56.07
37298;BME280;30517;51.932;4.278;2023-05-09T04:03:57;101482.31;;;17.73;56.00
37298;BME280;30517;51.932;4.278;2023-05-09T04:06:41;101482.31;;;17.71;56.08
37298;BME280;30517;51.932;4.278;2023-05-09T04:09:26;101486.78;;;17.70;56.11
37298;BME280;30517;51.932;4.278;2023-05-09T04:12:08;101467.69;;;17.50;56.04
37298;BME280;30517;51.932;4.278;2023-05-09T04:14:48;101486.94;;;17.64;56.34
37298;BME280;30517;51.932;4.278;2023-05-09T04:17:32;101370.88;;;17.03;56.29
37298;BME280;30517;51.932;4.278;2023-05-09T04:20:13;101399.91;;;17.18;55.97
37298;BME280;30517;51.932;4.278;2023-05-09T04:22:54;101480.59;;;17.68;56.05
37298;BME280;30517;51.932;4.278;2023-05-09T04:25:35;101386.78;;;17.08;57.27
37298;BME280;30517;51.932;4.278;2023-05-09T04:28:16;101473.53;;;17.67;57.34
37298;BME280;30517;51.932;4.278;2023-05-09T04:30:57;101463.06;;;17.58;57.12
37298;BME280;30517;51.932;4.278;2023-05-09T04:33:38;101420.06;;;17.32;57.18
37298;BME280;30517;51.932;4.278;2023-05-09T04:36:19;101472.66;;;17.67;57.01
37298;BME280;30517;51.932;4.278;2023-05-09T04:39:00;101462.88;;;17.66;57.03
37298;BME280;30517;51.932;4.278;2023-05-09T04:41:41;101458.47;;;17.65;57.30
37298;BME280;30517;51.932;4.278;2023-05-09T04:44:23;101466.44;;;17.66;56.91
37298;BME280;30517;51.932;4.278;2023-05-09T04:47:04;101456.66;;;17.65;56.96
37298;BME280;30517;51.932;4.278;2023-05-09T04:49:45;101461.09;;;17.66;56.82
37298;BME280;30517;51.932;4.278;2023-05-09T04:52:26;101445.44;;;17.50;56.67
37298;BME280;30517;51.932;4.278;2023-05-09T04:55:08;101392.69;;;17.23;56.80
37298;BME280;30517;51.932;4.278;2023-05-09T04:57:49;101448.72;;;17.64;56.70
37298;BME280;30517;51.932;4.278;2023-05-09T05:00:30;101288.34;;;16.55;56.82
37298;BME280;30517;51.932;4.278;2023-05-09T05:03:11;101410.91;;;17.43;56.44
37298;BME280;30517;51.932;4.278;2023-05-09T05:05:52;101449.59;;;17.63;56.75
37298;BME280;30517;51.932;4.278;2023-05-09T05:08:33;101439.06;;;17.58;57.66
37298;BME280;30517;51.932;4.278;2023-05-09T05:11:14;101431.06;;;17.58;57.66
37298;BME280;30517;51.932;4.278;2023-05-09T05:13:57;101364.41;;;17.16;57.30
37298;BME280;30517;51.932;4.278;2023-05-09T05:16:37;101371.44;;;17.19;57.15
37298;BME280;30517;51.932;4.278;2023-05-09T05:19:18;101395.22;;;17.30;57.30
37298;BME280;30517;51.932;4.278;2023-05-09T05:21:59;101341.41;;;17.11;57.26
37298;BME280;30517;51.932;4.278;2023-05-09T05:24:40;101424.78;;;17.59;57.14
37298;BME280;30517;51.932;4.278;2023-05-09T05:27:21;101359.78;;;17.24;57.20
37298;BME280;30517;51.932;4.278;2023-05-09T05:30:02;101401.19;;;17.41;57.12
37298;BME280;30517;51.932;4.278;2023-05-09T05:32:44;101424.00;;;17.54;57.13
37298;BME280;30517;51.932;4.278;2023-05-09T05:35:25;101358.88;;;17.25;57.23
37298;BME280;30517;51.932;4.278;2023-05-09T05:38:07;101432.00;;;17.56;57.22
37298;BME280;30517;51.932;4.278;2023-05-09T05:40:48;101375.44;;;17.40;57.09
37298;BME280;30517;51.932;4.278;2023-05-09T05:43:29;101406.22;;;17.55;56.97
37298;BME280;30517;51.932;4.278;2023-05-09T05:46:10;101356.25;;;17.24;57.38
37298;BME280;30517;51.932;4.278;2023-05-09T05:48:51;101334.28;;;17.13;57.13
37298;BME280;30517;51.932;4.278;2023-05-09T05:51:32;101264.81;;;16.78;57.23
37298;BME280;30517;51.932;4.278;2023-05-09T05:54:13;101202.84;;;16.25;56.81
37298;BME280;30517;51.932;4.278;2023-05-09T05:56:54;101236.22;;;16.45;56.70
37298;BME280;30517;51.932;4.278;2023-05-09T05:59:35;101363.22;;;17.30;56.83
37298;BME280;30517;51.932;4.278;2023-05-09T06:02:16;101337.72;;;17.18;56.84
37298;BME280;30517;51.932;4.278;2023-05-09T06:04:57;101397.41;;;17.51;57.11
37298;BME280;30517;51.932;4.278;2023-05-09T06:07:38;101371.97;;;17.36;56.86
37298;BME280;30517;51.932;4.278;2023-05-09T06:10:20;101322.75;;;17.11;56.97
37298;BME280;30517;51.932;4.278;2023-05-09T06:13:01;101370.97;;;17.42;56.81
37298;BME280;30517;51.932;4.278;2023-05-09T06:15:42;101381.41;;;17.51;57.05
37298;BME280;30517;51.932;4.278;2023-05-09T06:18:23;101263.00;;;16.80;56.97
37298;BME280;30517;51.932;4.278;2023-05-09T06:21:04;101319.22;;;17.10;56.93
37298;BME280;30517;51.932;4.278;2023-05-09T06:23:45;101298.97;;;17.01;56.66
37298;BME280;30517;51.932;4.278;2023-05-09T06:26:26;101215.56;;;16.56;56.75
37298;BME280;30517;51.932;4.278;2023-05-09T06:29:07;101377.09;;;17.45;58.05
37298;BME280;30517;51.932;4.278;2023-05-09T06:31:48;101269.13;;;16.86;57.74
37298;BME280;30517;51.932;4.278;2023-05-09T06:34:28;101341.03;;;17.28;58.45
37298;BME280;30517;51.932;4.278;2023-05-09T06:37:09;101363.84;;;17.41;58.79
37298;BME280;30517;51.932;4.278;2023-05-09T06:39:50;101312.09;;;17.11;57.98
37298;BME280;30517;51.932;4.278;2023-05-09T06:42:31;101364.69;;;17.44;57.48
37298;BME280;30517;51.932;4.278;2023-05-09T06:45:13;101360.22;;;17.45;57.51
37298;BME280;30517;51.932;4.278;2023-05-09T06:47:54;101357.56;;;17.45;57.08
37298;BME280;30517;51.932;4.278;2023-05-09T06:50:35;101314.44;;;17.26;57.25
37298;BME280;30517;51.932;4.278;2023-05-09T06:53:16;101344.41;;;17.36;57.36
37298;BME280;30517;51.932;4.278;2023-05-09T06:55:57;101313.56;;;17.25;57.28
37298;BME280;30517;51.932;4.278;2023-05-09T06:58:38;101344.25;;;17.43;57.48
37298;BME280;30517;51.932;4.278;2023-05-09T07:01:19;101330.19;;;17.37;57.22
37298;BME280;30517;51.932;4.278;2023-05-09T07:04:00;101329.13;;;17.44;56.84
37298;BME280;30517;51.932;4.278;2023-05-09T07:06:43;101278.38;;;17.08;56.60
37298;BME280;30517;51.932;4.278;2023-05-09T07:09:24;101277.44;;;17.12;56.16
37298;BME280;30517;51.932;4.278;2023-05-09T07:12:07;101315.78;;;17.44;56.46
37298;BME280;30517;51.932;4.278;2023-05-09T07:14:48;101301.72;;;17.37;56.72
37298;BME280;30517;51.932;4.278;2023-05-09T07:17:29;101303.38;;;17.43;56.96
37298;BME280;30517;51.932;4.278;2023-05-09T07:20:10;101300.72;;;17.41;57.15
37298;BME280;30517;51.932;4.278;2023-05-09T07:22:51;101294.53;;;17.41;57.00
37298;BME280;30517;51.932;4.278;2023-05-09T07:25:32;101288.31;;;17.40;56.87
37298;BME280;30517;51.932;4.278;2023-05-09T07:28:12;101250.63;;;17.18;57.28
37298;BME280;30517;51.932;4.278;2023-05-09T07:30:56;101270.59;;;17.38;57.03
37298;BME280;30517;51.932;4.278;2023-05-09T07:33:37;101264.56;;;17.30;56.88
37298;BME280;30517;51.932;4.278;2023-05-09T07:36:18;101269.69;;;17.39;56.93
37298;BME280;30517;51.932;4.278;2023-05-09T07:38:59;101243.47;;;17.20;56.85
37298;BME280;30517;51.932;4.278;2023-05-09T07:41:39;101259.16;;;17.34;57.16
37298;BME280;30517;51.932;4.278;2023-05-09T07:44:20;101255.66;;;17.31;57.05
37298;BME280;30517;51.932;4.278;2023-05-09T07:47:01;101259.06;;;17.37;56.94
37298;BME280;30517;51.932;4.278;2023-05-09T07:49:44;101259.09;;;17.36;56.90
37298;BME280;30517;51.932;4.278;2023-05-09T07:52:25;101241.50;;;17.29;57.13
37298;BME280;30517;51.932;4.278;2023-05-09T07:55:06;101232.59;;;17.28;57.10
37298;BME280;30517;51.932;4.278;2023-05-09T07:57:49;101216.81;;;17.20;57.19
37298;BME280;30517;51.932;4.278;2023-05-09T08:00:30;101202.75;;;17.14;57.00
37298;BME280;30517;51.932;4.278;2023-05-09T08:03:11;101244.00;;;17.36;56.79
37298;BME280;30517;51.932;4.278;2023-05-09T08:05:53;101224.59;;;17.30;57.06
37298;BME280;30517;51.932;4.278;2023-05-09T08:08:34;101232.41;;;17.36;57.30
37298;BME280;30517;51.932;4.278;2023-05-09T08:11:15;101199.91;;;17.21;57.33
37298;BME280;30517;51.932;4.278;2023-05-09T08:13:56;101215.56;;;17.35;57.65
37298;BME280;30517;51.932;4.278;2023-05-09T08:16:37;101121.00;;;16.75;57.45
37298;BME280;30517;51.932;4.278;2023-05-09T08:19:18;101217.34;;;17.35;57.36
37298;BME280;30517;51.932;4.278;2023-05-09T08:22:00;101209.38;;;17.33;57.11
37298;BME280;30517;51.932;4.278;2023-05-09T08:24:40;101191.91;;;17.21;57.37
37298;BME280;30517;51.932;4.278;2023-05-09T08:27:21;101205.81;;;17.34;57.26
37298;BME280;30517;51.932;4.278;2023-05-09T08:30:02;101207.63;;;17.34;57.58
37298;BME280;30517;51.932;4.278;2023-05-09T08:32:43;101189.94;;;17.28;56.86
37298;BME280;30517;51.932;4.278;2023-05-09T08:35:24;101119.84;;;16.89;57.69
37298;BME280;30517;51.932;4.278;2023-05-09T08:38:05;101182.09;;;17.23;57.36
37298;BME280;30517;51.932;4.278;2023-05-09T08:40:46;101196.19;;;17.27;57.32
37298;BME280;30517;51.932;4.278;2023-05-09T08:43:27;101110.94;;;16.90;57.41
37298;BME280;30517;51.932;4.278;2023-05-09T08:46:09;101154.81;;;17.12;57.63
37298;BME280;30517;51.932;4.278;2023-05-09T08:48:51;101132.03;;;16.99;57.44
37298;BME280;30517;51.932;4.278;2023-05-09T08:51:34;101165.31;;;17.18;57.68
37298;BME280;30517;51.932;4.278;2023-05-09T08:54:15;101176.56;;;17.31;57.29
37298;BME280;30517;51.932;4.278;2023-05-09T08:56:56;101183.56;;;17.35;57.28
37298;BME280;30517;51.932;4.278;2023-05-09T08:59:39;101170.41;;;17.28;57.51
37298;BME280;30517;51.932;4.278;2023-05-09T09:02:22;101196.88;;;17.37;57.29
37298;BME280;30517;51.932;4.278;2023-05-09T09:05:03;101178.19;;;17.37;57.54
37298;BME280;30517;51.932;4.278;2023-05-09T09:07:44;101177.44;;;17.32;57.08
37298;BME280;30517;51.932;4.278;2023-05-09T09:10:28;101177.34;;;17.36;57.39
37298;BME280;30517;51.932;4.278;2023-05-09T09:13:12;101181.69;;;17.39;57.04
37298;BME280;30517;51.932;4.278;2023-05-09T09:15:53;101181.69;;;17.39;56.88
37298;BME280;30517;51.932;4.278;2023-05-09T09:18:38;101163.25;;;17.30;57.33
37298;BME280;30517;51.932;4.278;2023-05-09T09:21:19;101163.00;;;17.39;56.83
37298;BME280;30517;51.932;4.278;2023-05-09T09:24:01;101134.38;;;17.11;57.46
37298;BME280;30517;51.932;4.278;2023-05-09T09:26:47;101169.25;;;17.39;57.20
37298;BME280;30517;51.932;4.278;2023-05-09T09:29:28;101164.78;;;17.40;57.16
37298;BME280;30517;51.932;4.278;2023-05-09T09:32:10;101159.56;;;17.35;57.20
37298;BME280;30517;51.932;4.278;2023-05-09T09:35:03;101059.75;;;16.77;57.15
37298;BME280;30517;51.932;4.278;2023-05-09T09:37:45;101152.50;;;17.33;57.42
37298;BME280;30517;51.932;4.278;2023-05-09T09:40:26;101077.22;;;16.89;57.16
37298;BME280;30517;51.932;4.278;2023-05-09T09:43:08;101156.78;;;17.40;57.13
37298;BME280;30517;51.932;4.278;2023-05-09T09:45:49;101150.72;;;17.33;57.04
37298;BME280;30517;51.932;4.278;2023-05-09T09:48:32;101127.25;;;17.13;57.04
37298;BME280;30517;51.932;4.278;2023-05-09T09:51:13;101157.66;;;17.40;56.94
37298;BME280;30517;51.932;4.278;2023-05-09T09:53:53;101147.19;;;17.33;57.17
37298;BME280;30517;51.932;4.278;2023-05-09T09:56:43;101127.84;;;17.24;57.06
37298;BME280;30517;51.932;4.278;2023-05-09T09:59:24;101145.19;;;17.41;57.18
37298;BME280;30517;51.932;4.278;2023-05-09T10:02:06;101140.97;;;17.32;57.39
37298;BME280;30517;51.932;4.278;2023-05-09T10:04:47;101130.31;;;17.32;56.97
37298;BME280;30517;51.932;4.278;2023-05-09T10:07:33;101140.78;;;17.40;56.95
37298;BME280;30517;51.932;4.278;2023-05-09T10:10:17;101139.00;;;17.40;57.09
37298;BME280;30517;51.932;4.278;2023-05-09T10:13:06;101134.63;;;17.38;56.87
37298;BME280;30517;51.932;4.278;2023-05-09T10:15:49;101143.47;;;17.40;57.10
37298;BME280;30517;51.932;4.278;2023-05-09T10:18:30;101062.78;;;16.97;56.93
37298;BME280;30517;51.932;4.278;2023-05-09T10:21:13;101136.31;;;17.40;56.97
37298;BME280;30517;51.932;4.278;2023-05-09T10:23:55;101130.06;;;17.41;57.10
37298;BME280;30517;51.932;4.278;2023-05-09T10:26:40;101129.38;;;17.35;57.23
37298;BME280;30517;51.932;4.278;2023-05-09T10:29:26;101123.88;;;17.41;57.14
37298;BME280;30517;51.932;4.278;2023-05-09T10:32:15;101123.00;;;17.40;56.94
37298;BME280;30517;51.932;4.278;2023-05-09T10:35:02;101081.00;;;17.14;57.17
37298;BME280;30517;51.932;4.278;2023-05-09T10:37:44;101089.69;;;17.22;57.09
37298;BME280;30517;51.932;4.278;2023-05-09T10:40:27;101111.47;;;17.40;57.17
37298;BME280;30517;51.932;4.278;2023-05-09T10:43:08;101092.22;;;17.27;57.21
37298;BME280;30517;51.932;4.278;2023-05-09T10:45:49;101108.78;;;17.40;57.07
37298;BME280;30517;51.932;4.278;2023-05-09T10:48:31;101105.19;;;17.41;57.20
37298;BME280;30517;51.932;4.278;2023-05-09T10:51:12;101094.59;;;17.39;57.07
37298;BME280;30517;51.932;4.278;2023-05-09T10:53:53;101081.44;;;17.32;57.45
37298;BME280;30517;51.932;4.278;2023-05-09T10:56:35;101083.16;;;17.34;57.45
37298;BME280;30517;51.932;4.278;2023-05-09T10:59:32;101091.03;;;17.39;57.19
37298;BME280;30517;51.932;4.278;2023-05-09T11:02:18;101089.16;;;17.42;57.31
37298;BME280;30517;51.932;4.278;2023-05-09T11:05:15;101091.88;;;17.41;57.15
37298;BME280;30517;51.932;4.278;2023-05-09T11:08:18;101089.28;;;17.38;57.54
37298;BME280;30517;51.932;4.278;2023-05-09T11:11:05;101066.34;;;17.31;57.43
37298;BME280;30517;51.932;4.278;2023-05-09T11:13:46;101079.38;;;17.43;56.91
37298;BME280;30517;51.932;4.278;2023-05-09T11:16:27;101054.06;;;17.25;57.13
37298;BME280;30517;51.932;4.278;2023-05-09T11:19:08;101076.03;;;17.35;57.42
37298;BME280;30517;51.932;4.278;2023-05-09T11:22:00;101040.94;;;17.17;57.50
37298;BME280;30517;51.932;4.278;2023-05-09T11:24:44;101076.13;;;17.32;57.40
37298;BME280;30517;51.932;4.278;2023-05-09T11:27:27;101055.53;;;17.37;57.20
37298;BME280;30517;51.932;4.278;2023-05-09T11:30:15;101073.16;;;17.42;57.35
37298;BME280;30517;51.932;4.278;2023-05-09T11:32:56;101067.78;;;17.44;56.78
37298;BME280;30517;51.932;4.278;2023-05-09T11:35:42;101046.03;;;17.27;57.55
37298;BME280;30517;51.932;4.278;2023-05-09T11:38:23;101036.31;;;17.25;57.40
37298;BME280;30517;51.932;4.278;2023-05-09T11:41:04;101063.38;;;17.43;57.33
37298;BME280;30517;51.932;4.278;2023-05-09T11:43:45;101056.34;;;17.39;57.27
37298;BME280;30517;51.932;4.278;2023-05-09T11:46:26;101052.91;;;17.35;57.52
37298;BME280;30517;51.932;4.278;2023-05-09T11:49:07;101055.34;;;17.44;57.08
37298;BME280;30517;51.932;4.278;2023-05-09T11:51:48;101058.00;;;17.44;57.53
37298;BME280;30517;51.932;4.278;2023-05-09T11:54:29;101019.88;;;17.08;57.81
37298;BME280;30517;51.932;4.278;2023-05-09T11:57:10;101053.53;;;17.45;57.51
37298;BME280;30517;51.932;4.278;2023-05-09T11:59:56;101049.28;;;17.38;57.42
37298;BME280;30517;51.932;4.278;2023-05-09T12:02:42;101041.94;;;17.46;57.14
37298;BME280;30517;51.932;4.278;2023-05-09T12:05:23;101046.34;;;17.47;57.23
37298;BME280;30517;51.932;4.278;2023-05-09T12:08:05;101036.44;;;17.52;57.02
37298;BME280;30517;51.932;4.278;2023-05-09T12:10:46;101020.03;;;17.36;57.35
37298;BME280;30517;51.932;4.278;2023-05-09T12:13:27;101016.53;;;17.33;57.28
37298;BME280;30517;51.932;4.278;2023-05-09T12:16:07;101017.38;;;17.35;57.40
37298;BME280;30517;51.932;4.278;2023-05-09T12:18:50;101041.03;;;17.47;57.09
37298;BME280;30517;51.932;4.278;2023-05-09T12:21:31;101005.03;;;17.31;57.05
37298;BME280;30517;51.932;4.278;2023-05-09T12:24:12;101033.94;;;17.46;57.46
37298;BME280;30517;51.932;4.278;2023-05-09T12:26:54;101034.06;;;17.41;57.32
37298;BME280;30517;51.932;4.278;2023-05-09T12:29:35;101015.47;;;17.40;57.45
37298;BME280;30517;51.932;4.278;2023-05-09T12:32:16;101035.66;;;17.48;57.09
37298;BME280;30517;51.932;4.278;2023-05-09T12:34:59;101029.47;;;17.48;57.20
37298;BME280;30517;51.932;4.278;2023-05-09T12:37:53;101027.69;;;17.47;57.35
37298;BME280;30517;51.932;4.278;2023-05-09T12:40:35;101023.19;;;17.49;57.11
37298;BME280;30517;51.932;4.278;2023-05-09T12:43:16;101026.72;;;17.50;57.47
37298;BME280;30517;51.932;4.278;2023-05-09T12:45:57;101017.03;;;17.47;57.38
37298;BME280;30517;51.932;4.278;2023-05-09T12:48:38;101019.66;;;17.48;57.33
37298;BME280;30517;51.932;4.278;2023-05-09T12:51:20;101019.66;;;17.48;57.50
37298;BME280;30517;51.932;4.278;2023-05-09T12:54:02;101022.28;;;17.50;57.38
37298;BME280;30517;51.932;4.278;2023-05-09T12:56:44;101008.97;;;17.50;57.33
37298;BME280;30517;51.932;4.278;2023-05-09T12:59:27;100997.56;;;17.43;57.09
37298;BME280;30517;51.932;4.278;2023-05-09T13:02:09;101010.72;;;17.50;57.49
37298;BME280;30517;51.932;4.278;2023-05-09T13:04:50;101004.53;;;17.49;57.58
37298;BME280;30517;51.932;4.278;2023-05-09T13:07:46;101005.38;;;17.51;57.37
37298;BME280;30517;51.932;4.278;2023-05-09T13:10:27;101008.91;;;17.52;57.18
37298;BME280;30517;51.932;4.278;2023-05-09T13:13:14;101008.91;;;17.52;57.13
37298;BME280;30517;51.932;4.278;2023-05-09T13:15:56;100952.00;;;17.21;57.46
37298;BME280;30517;51.932;4.278;2023-05-09T13:18:37;100987.78;;;17.44;57.38
37298;BME280;30517;51.932;4.278;2023-05-09T13:21:17;101000.91;;;17.52;57.23
37298;BME280;30517;51.932;4.278;2023-05-09T13:23:59;100950.25;;;17.20;57.36
37298;BME280;30517;51.932;4.278;2023-05-09T13:26:40;100980.38;;;17.22;61.02
37298;BME280;30517;51.932;4.278;2023-05-09T13:29:20;101001.47;;;17.32;63.71
37298;BME280;30517;51.932;4.278;2023-05-09T13:32:01;100930.47;;;16.96;63.51
37298;BME280;30517;51.932;4.278;2023-05-09T13:34:42;100920.63;;;16.98;61.54
37298;BME280;30517;51.932;4.278;2023-05-09T13:37:23;100920.69;;;16.97;61.33
37298;BME280;30517;51.932;4.278;2023-05-09T13:40:04;100977.22;;;17.41;60.97
37298;BME280;30517;51.932;4.278;2023-05-09T13:42:45;100964.75;;;17.41;60.66
37298;BME280;30517;51.932;4.278;2023-05-09T13:45:28;100960.38;;;17.39;59.87
37298;BME280;30517;51.932;4.278;2023-05-09T13:48:08;100977.81;;;17.51;59.25
37298;BME280;30517;51.932;4.278;2023-05-09T13:50:50;100987.34;;;17.59;59.16
37298;BME280;30517;51.932;4.278;2023-05-09T13:53:31;100896.63;;;17.00;58.93
37298;BME280;30517;51.932;4.278;2023-05-09T13:56:12;100971.53;;;17.53;59.01
37298;BME280;30517;51.932;4.278;2023-05-09T13:58:53;100980.41;;;17.54;58.91
37298;BME280;30517;51.932;4.278;2023-05-09T14:01:34;100981.19;;;17.57;58.68
37298;BME280;30517;51.932;4.278;2023-05-09T14:04:14;100982.94;;;17.58;58.63
37298;BME280;30517;51.932;4.278;2023-05-09T14:06:55;100979.25;;;17.62;58.68
37298;BME280;30517;51.932;4.278;2023-05-09T14:09:36;100948.75;;;17.41;58.86
37298;BME280;30517;51.932;4.278;2023-05-09T14:12:19;100977.44;;;17.63;58.92
37298;BME280;30517;51.932;4.278;2023-05-09T14:15:01;100973.91;;;17.62;58.69